sensor_id;sensor_type;location;lat;lon;timestamp;P1;durP1;ratioP1;P2;durP2;ratioP2
45944;SDS011;31655;48.972;10.686;2024-02-28T00:00:38;79.72;;;33.38;;
45944;SDS011;31655;48.972;10.686;2024-02-28T00:03:04;79.45;;;32.13;;
45944;SDS011;31655;48.972;10.686;2024-02-28T00:05:31;84.97;;;32.63;;
45944;SDS011;31655;48.972;10.686;2024-02-28T00:07:58;77.32;;;31.85;;
45944;SDS011;31655;48.972;10.686;2024-02-28T00:10:23;84.05;;;33.80;;
45944;SDS011;31655;48.972;10.686;2024-02-28T00:12:56;81.70;;;33.80;;
45944;SDS011;31655;48.972;10.686;2024-02-28T00:15:23;80.72;;;31.60;;
45944;SDS011;31655;48.972;10.686;2024-02-28T00:17:51;80.75;;;31.70;;
45944;SDS011;31655;48.972;10.686;2024-02-28T00:20:19;81.68;;;32.60;;
45944;SDS011;31655;48.972;10.686;2024-02-28T00:22:46;81.57;;;32.22;;
45944;SDS011;31655;48.972;10.686;2024-02-28T00:25:15;87.75;;;33.08;;
45944;SDS011;31655;48.972;10.686;2024-02-28T00:27:41;84.53;;;33.60;;
45944;SDS011;31655;48.972;10.686;2024-02-28T00:30:06;81.85;;;33.90;;
45944;SDS011;31655;48.972;10.686;2024-02-28T00:32:32;82.82;;;34.17;;
45944;SDS011;31655;48.972;10.686;2024-02-28T00:35:03;76.90;;;31.05;;
45944;SDS011;31655;48.972;10.686;2024-02-28T00:37:29;83.93;;;34.15;;
45944;SDS011;31655;48.972;10.686;2024-02-28T00:39:56;80.07;;;34.33;;
45944;SDS011;31655;48.972;10.686;2024-02-28T00:42:23;78.10;;;30.95;;
45944;SDS011;31655;48.972;10.686;2024-02-28T00:44:49;89.22;;;31.70;;
45944;SDS011;31655;48.972;10.686;2024-02-28T00:47:15;88.60;;;35.17;;
45944;SDS011;31655;48.972;10.686;2024-02-28T00:49:41;78.05;;;31.52;;
45944;SDS011;31655;48.972;10.686;2024-02-28T00:52:06;83.70;;;34.38;;
45944;SDS011;31655;48.972;10.686;2024-02-28T00:54:32;79.68;;;32.67;;
45944;SDS011;31655;48.972;10.686;2024-02-28T00:56:58;79.07;;;35.03;;
45944;SDS011;31655;48.972;10.686;2024-02-28T00:59:26;85.00;;;33.22;;
45944;SDS011;31655;48.972;10.686;2024-02-28T01:01:51;80.15;;;31.40;;
45944;SDS011;31655;48.972;10.686;2024-02-28T01:04:20;84.68;;;33.75;;
45944;SDS011;31655;48.972;10.686;2024-02-28T01:06:46;78.53;;;32.75;;
45944;SDS011;31655;48.972;10.686;2024-02-28T01:09:12;83.70;;;32.97;;
45944;SDS011;31655;48.972;10.686;2024-02-28T01:11:38;93.95;;;34.40;;
45944;SDS011;31655;48.972;10.686;2024-02-28T01:14:05;83.15;;;33.85;;
45944;SDS011;31655;48.972;10.686;2024-02-28T01:16:32;80.05;;;32.63;;
45944;SDS011;31655;48.972;10.686;2024-02-28T01:18:57;84.47;;;33.05;;
45944;SDS011;31655;48.972;10.686;2024-02-28T01:21:35;78.55;;;33.58;;
45944;SDS011;31655;48.972;10.686;2024-02-28T01:24:15;78.95;;;31.13;;
45944;SDS011;31655;48.972;10.686;2024-02-28T01:30:01;91.00;;;34.88;;
45944;SDS011;31655;48.972;10.686;2024-02-28T01:32:28;82.35;;;33.78;;
45944;SDS011;31655;48.972;10.686;2024-02-28T01:34:54;92.88;;;36.17;;
45944;SDS011;31655;48.972;10.686;2024-02-28T01:37:20;86.40;;;33.45;;
45944;SDS011;31655;48.972;10.686;2024-02-28T01:39:47;94.32;;;38.20;;
45944;SDS011;31655;48.972;10.686;2024-02-28T01:42:13;89.03;;;36.05;;
45944;SDS011;31655;48.972;10.686;2024-02-28T01:44:59;96.07;;;35.58;;
45944;SDS011;31655;48.972;10.686;2024-02-28T01:47:31;83.10;;;34.63;;
45944;SDS011;31655;48.972;10.686;2024-02-28T01:53:17;89.90;;;35.72;;
45944;SDS011;31655;48.972;10.686;2024-02-28T01:55:43;87.30;;;35.65;;
45944;SDS011;31655;48.972;10.686;2024-02-28T01:58:08;94.20;;;36.33;;
45944;SDS011;31655;48.972;10.686;2024-02-28T02:00:34;87.82;;;34.53;;
45944;SDS011;31655;48.972;10.686;2024-02-28T02:03:02;85.13;;;34.15;;
45944;SDS011;31655;48.972;10.686;2024-02-28T02:05:28;84.78;;;33.97;;
45944;SDS011;31655;48.972;10.686;2024-02-28T02:07:54;80.68;;;33.35;;
45944;SDS011;31655;48.972;10.686;2024-02-28T02:10:21;80.15;;;33.85;;
45944;SDS011;31655;48.972;10.686;2024-02-28T02:12:48;71.85;;;30.83;;
45944;SDS011;31655;48.972;10.686;2024-02-28T02:15:13;67.78;;;27.88;;
45944;SDS011;31655;48.972;10.686;2024-02-28T02:17:39;74.63;;;31.30;;
45944;SDS011;31655;48.972;10.686;2024-02-28T02:20:05;68.38;;;29.15;;
45944;SDS011;31655;48.972;10.686;2024-02-28T02:22:38;73.22;;;29.40;;
45944;SDS011;31655;48.972;10.686;2024-02-28T02:25:04;79.93;;;31.33;;
45944;SDS011;31655;48.972;10.686;2024-02-28T02:27:30;74.05;;;32.60;;
45944;SDS011;31655;48.972;10.686;2024-02-28T02:29:56;70.72;;;29.73;;
45944;SDS011;31655;48.972;10.686;2024-02-28T02:32:21;71.78;;;31.38;;
45944;SDS011;31655;48.972;10.686;2024-02-28T02:34:47;75.65;;;31.45;;
45944;SDS011;31655;48.972;10.686;2024-02-28T02:37:12;83.38;;;32.13;;
45944;SDS011;31655;48.972;10.686;2024-02-28T02:39:38;84.00;;;32.40;;
45944;SDS011;31655;48.972;10.686;2024-02-28T02:42:03;73.45;;;30.00;;
45944;SDS011;31655;48.972;10.686;2024-02-28T02:44:29;76.80;;;30.10;;
45944;SDS011;31655;48.972;10.686;2024-02-28T02:46:55;97.50;;;36.28;;
45944;SDS011;31655;48.972;10.686;2024-02-28T02:49:20;88.78;;;39.22;;
45944;SDS011;31655;48.972;10.686;2024-02-28T02:51:46;87.50;;;37.40;;
45944;SDS011;31655;48.972;10.686;2024-02-28T02:54:11;93.22;;;39.60;;
45944;SDS011;31655;48.972;10.686;2024-02-28T02:56:37;105.78;;;40.55;;
45944;SDS011;31655;48.972;10.686;2024-02-28T02:59:06;89.30;;;34.75;;
45944;SDS011;31655;48.972;10.686;2024-02-28T03:01:32;81.57;;;32.92;;
45944;SDS011;31655;48.972;10.686;2024-02-28T03:03:58;81.25;;;33.08;;
45944;SDS011;31655;48.972;10.686;2024-02-28T03:06:23;81.90;;;34.33;;
45944;SDS011;31655;48.972;10.686;2024-02-28T03:08:49;84.45;;;35.50;;
45944;SDS011;31655;48.972;10.686;2024-02-28T03:11:14;91.10;;;35.28;;
45944;SDS011;31655;48.972;10.686;2024-02-28T03:13:40;94.45;;;33.83;;
45944;SDS011;31655;48.972;10.686;2024-02-28T03:16:05;79.50;;;34.35;;
45944;SDS011;31655;48.972;10.686;2024-02-28T03:18:31;79.97;;;32.30;;
45944;SDS011;31655;48.972;10.686;2024-02-28T03:20:57;85.10;;;35.13;;
45944;SDS011;31655;48.972;10.686;2024-02-28T03:23:22;77.97;;;31.25;;
45944;SDS011;31655;48.972;10.686;2024-02-28T03:25:48;83.22;;;32.58;;
45944;SDS011;31655;48.972;10.686;2024-02-28T03:28:14;86.10;;;32.72;;
45944;SDS011;31655;48.972;10.686;2024-02-28T03:30:39;85.18;;;34.80;;
45944;SDS011;31655;48.972;10.686;2024-02-28T03:33:05;84.65;;;34.30;;
45944;SDS011;31655;48.972;10.686;2024-02-28T03:35:30;78.72;;;32.17;;
45944;SDS011;31655;48.972;10.686;2024-02-28T03:37:56;83.22;;;32.70;;
45944;SDS011;31655;48.972;10.686;2024-02-28T03:40:21;88.95;;;34.42;;
45944;SDS011;31655;48.972;10.686;2024-02-28T03:42:47;86.80;;;32.97;;
45944;SDS011;31655;48.972;10.686;2024-02-28T03:45:12;82.50;;;32.50;;
45944;SDS011;31655;48.972;10.686;2024-02-28T03:47:38;82.90;;;34.42;;
45944;SDS011;31655;48.972;10.686;2024-02-28T03:50:05;77.65;;;32.28;;
45944;SDS011;31655;48.972;10.686;2024-02-28T03:52:31;79.72;;;33.03;;
45944;SDS011;31655;48.972;10.686;2024-02-28T03:54:56;85.13;;;35.10;;
45944;SDS011;31655;48.972;10.686;2024-02-28T03:57:22;84.03;;;32.83;;
45944;SDS011;31655;48.972;10.686;2024-02-28T03:59:48;83.45;;;34.55;;
45944;SDS011;31655;48.972;10.686;2024-02-28T04:02:13;78.85;;;33.45;;
45944;SDS011;31655;48.972;10.686;2024-02-28T04:04:39;83.20;;;31.00;;
45944;SDS011;31655;48.972;10.686;2024-02-28T04:07:05;90.85;;;32.85;;
45944;SDS011;31655;48.972;10.686;2024-02-28T04:09:31;85.95;;;32.70;;
45944;SDS011;31655;48.972;10.686;2024-02-28T04:11:56;85.13;;;36.05;;
45944;SDS011;31655;48.972;10.686;2024-02-28T04:14:22;93.25;;;33.05;;
45944;SDS011;31655;48.972;10.686;2024-02-28T04:16:47;85.90;;;33.85;;
45944;SDS011;31655;48.972;10.686;2024-02-28T04:19:15;82.43;;;32.72;;
45944;SDS011;31655;48.972;10.686;2024-02-28T04:21:41;91.25;;;32.88;;
45944;SDS011;31655;48.972;10.686;2024-02-28T04:24:08;86.85;;;36.20;;
45944;SDS011;31655;48.972;10.686;2024-02-28T04:26:35;92.43;;;34.42;;
45944;SDS011;31655;48.972;10.686;2024-02-28T04:29:01;96.75;;;36.88;;
45944;SDS011;31655;48.972;10.686;2024-02-28T04:31:30;101.28;;;39.20;;
45944;SDS011;31655;48.972;10.686;2024-02-28T04:33:56;106.65;;;39.17;;
45944;SDS011;31655;48.972;10.686;2024-02-28T04:36:22;96.20;;;36.72;;
45944;SDS011;31655;48.972;10.686;2024-02-28T04:38:47;83.03;;;33.47;;
45944;SDS011;31655;48.972;10.686;2024-02-28T04:41:13;88.63;;;34.38;;
45944;SDS011;31655;48.972;10.686;2024-02-28T04:43:38;86.70;;;33.85;;
45944;SDS011;31655;48.972;10.686;2024-02-28T04:46:05;97.43;;;35.42;;
45944;SDS011;31655;48.972;10.686;2024-02-28T04:48:30;93.10;;;34.58;;
45944;SDS011;31655;48.972;10.686;2024-02-28T04:50:56;106.63;;;41.33;;
45944;SDS011;31655;48.972;10.686;2024-02-28T04:53:22;94.18;;;38.72;;
45944;SDS011;31655;48.972;10.686;2024-02-28T04:55:47;104.75;;;39.28;;
45944;SDS011;31655;48.972;10.686;2024-02-28T04:58:13;93.75;;;38.20;;
45944;SDS011;31655;48.972;10.686;2024-02-28T05:00:40;98.65;;;39.13;;
45944;SDS011;31655;48.972;10.686;2024-02-28T05:03:06;90.95;;;38.38;;
45944;SDS011;31655;48.972;10.686;2024-02-28T05:05:32;96.93;;;38.13;;
45944;SDS011;31655;48.972;10.686;2024-02-28T05:07:59;99.97;;;38.00;;
45944;SDS011;31655;48.972;10.686;2024-02-28T05:10:25;101.63;;;37.47;;
45944;SDS011;31655;48.972;10.686;2024-02-28T05:12:50;93.90;;;34.40;;
45944;SDS011;31655;48.972;10.686;2024-02-28T05:15:16;88.63;;;36.58;;
45944;SDS011;31655;48.972;10.686;2024-02-28T05:17:44;107.75;;;39.88;;
45944;SDS011;31655;48.972;10.686;2024-02-28T05:20:10;113.47;;;40.90;;
45944;SDS011;31655;48.972;10.686;2024-02-28T05:22:40;100.43;;;38.53;;
45944;SDS011;31655;48.972;10.686;2024-02-28T05:25:07;103.65;;;38.83;;
45944;SDS011;31655;48.972;10.686;2024-02-28T05:27:33;91.43;;;36.35;;
45944;SDS011;31655;48.972;10.686;2024-02-28T05:29:58;108.97;;;37.63;;
45944;SDS011;31655;48.972;10.686;2024-02-28T05:32:26;113.03;;;42.08;;
45944;SDS011;31655;48.972;10.686;2024-02-28T05:34:53;109.07;;;42.55;;
45944;SDS011;31655;48.972;10.686;2024-02-28T05:37:20;109.85;;;38.00;;
45944;SDS011;31655;48.972;10.686;2024-02-28T05:39:46;103.10;;;38.50;;
45944;SDS011;31655;48.972;10.686;2024-02-28T05:42:12;116.68;;;42.10;;
45944;SDS011;31655;48.972;10.686;2024-02-28T05:44:42;110.28;;;39.60;;
45944;SDS011;31655;48.972;10.686;2024-02-28T05:47:12;111.28;;;37.83;;
45944;SDS011;31655;48.972;10.686;2024-02-28T05:49:38;111.40;;;38.38;;
45944;SDS011;31655;48.972;10.686;2024-02-28T05:52:04;110.25;;;39.05;;
45944;SDS011;31655;48.972;10.686;2024-02-28T05:54:30;103.47;;;38.63;;
45944;SDS011;31655;48.972;10.686;2024-02-28T05:56:56;117.85;;;40.28;;
45944;SDS011;31655;48.972;10.686;2024-02-28T05:59:21;120.10;;;43.17;;
45944;SDS011;31655;48.972;10.686;2024-02-28T06:01:47;113.75;;;40.15;;
45944;SDS011;31655;48.972;10.686;2024-02-28T06:04:12;106.80;;;37.67;;
45944;SDS011;31655;48.972;10.686;2024-02-28T06:06:41;109.05;;;37.78;;
45944;SDS011;31655;48.972;10.686;2024-02-28T06:09:07;111.57;;;39.33;;
45944;SDS011;31655;48.972;10.686;2024-02-28T06:11:33;107.97;;;36.97;;
45944;SDS011;31655;48.972;10.686;2024-02-28T06:13:58;104.63;;;35.33;;
45944;SDS011;31655;48.972;10.686;2024-02-28T06:16:24;115.78;;;41.53;;
45944;SDS011;31655;48.972;10.686;2024-02-28T06:18:49;110.75;;;37.58;;
45944;SDS011;31655;48.972;10.686;2024-02-28T06:21:16;111.70;;;40.25;;
45944;SDS011;31655;48.972;10.686;2024-02-28T06:23:42;111.18;;;39.05;;
45944;SDS011;31655;48.972;10.686;2024-02-28T06:26:08;104.35;;;36.15;;
45944;SDS011;31655;48.972;10.686;2024-02-28T06:28:41;100.05;;;37.55;;
45944;SDS011;31655;48.972;10.686;2024-02-28T06:31:12;96.72;;;33.55;;
45944;SDS011;31655;48.972;10.686;2024-02-28T06:33:41;99.13;;;33.10;;
45944;SDS011;31655;48.972;10.686;2024-02-28T06:36:08;95.50;;;35.38;;
45944;SDS011;31655;48.972;10.686;2024-02-28T06:42:01;80.40;;;30.95;;
45944;SDS011;31655;48.972;10.686;2024-02-28T06:44:26;79.63;;;29.98;;
45944;SDS011;31655;48.972;10.686;2024-02-28T06:46:52;83.47;;;30.48;;
45944;SDS011;31655;48.972;10.686;2024-02-28T06:49:17;90.18;;;34.17;;
45944;SDS011;31655;48.972;10.686;2024-02-28T06:51:43;84.72;;;29.83;;
45944;SDS011;31655;48.972;10.686;2024-02-28T06:54:09;81.25;;;30.60;;
45944;SDS011;31655;48.972;10.686;2024-02-28T06:56:35;78.43;;;30.17;;
45944;SDS011;31655;48.972;10.686;2024-02-28T06:59:01;84.95;;;30.88;;
45944;SDS011;31655;48.972;10.686;2024-02-28T07:01:30;73.35;;;28.38;;
45944;SDS011;31655;48.972;10.686;2024-02-28T07:03:55;71.57;;;28.88;;
45944;SDS011;31655;48.972;10.686;2024-02-28T07:06:21;68.90;;;27.27;;
45944;SDS011;31655;48.972;10.686;2024-02-28T07:09:14;74.07;;;29.95;;
45944;SDS011;31655;48.972;10.686;2024-02-28T07:11:40;80.32;;;30.05;;
45944;SDS011;31655;48.972;10.686;2024-02-28T07:14:05;75.13;;;31.90;;
45944;SDS011;31655;48.972;10.686;2024-02-28T07:16:31;78.35;;;30.20;;
45944;SDS011;31655;48.972;10.686;2024-02-28T07:18:58;76.57;;;29.23;;
45944;SDS011;31655;48.972;10.686;2024-02-28T07:21:25;88.05;;;34.08;;
45944;SDS011;31655;48.972;10.686;2024-02-28T07:23:50;85.55;;;32.25;;
45944;SDS011;31655;48.972;10.686;2024-02-28T07:26:16;80.63;;;29.83;;
45944;SDS011;31655;48.972;10.686;2024-02-28T07:28:41;81.43;;;32.03;;
45944;SDS011;31655;48.972;10.686;2024-02-28T07:31:14;79.95;;;30.63;;
45944;SDS011;31655;48.972;10.686;2024-02-28T07:33:42;87.00;;;32.40;;
45944;SDS011;31655;48.972;10.686;2024-02-28T07:36:15;91.70;;;34.83;;
45944;SDS011;31655;48.972;10.686;2024-02-28T07:38:41;84.00;;;32.53;;
45944;SDS011;31655;48.972;10.686;2024-02-28T07:41:07;82.13;;;31.92;;
45944;SDS011;31655;48.972;10.686;2024-02-28T07:43:35;78.82;;;30.13;;
45944;SDS011;31655;48.972;10.686;2024-02-28T07:46:07;86.22;;;32.78;;
45944;SDS011;31655;48.972;10.686;2024-02-28T07:48:34;86.38;;;33.15;;
45944;SDS011;31655;48.972;10.686;2024-02-28T07:51:00;96.40;;;35.63;;
45944;SDS011;31655;48.972;10.686;2024-02-28T07:53:26;77.30;;;31.55;;
45944;SDS011;31655;48.972;10.686;2024-02-28T07:55:54;89.38;;;32.42;;
45944;SDS011;31655;48.972;10.686;2024-02-28T07:58:21;82.13;;;31.95;;
45944;SDS011;31655;48.972;10.686;2024-02-28T08:00:46;80.22;;;30.35;;
45944;SDS011;31655;48.972;10.686;2024-02-28T08:03:12;79.80;;;31.02;;
45944;SDS011;31655;48.972;10.686;2024-02-28T08:05:37;83.80;;;33.03;;
45944;SDS011;31655;48.972;10.686;2024-02-28T08:08:08;88.40;;;33.03;;
45944;SDS011;31655;48.972;10.686;2024-02-28T08:10:33;78.63;;;32.88;;
45944;SDS011;31655;48.972;10.686;2024-02-28T08:13:03;83.43;;;29.92;;
45944;SDS011;31655;48.972;10.686;2024-02-28T08:15:29;87.97;;;33.22;;
45944;SDS011;31655;48.972;10.686;2024-02-28T08:17:55;86.88;;;33.85;;
45944;SDS011;31655;48.972;10.686;2024-02-28T08:20:20;90.00;;;33.55;;
45944;SDS011;31655;48.972;10.686;2024-02-28T08:22:46;75.15;;;32.03;;
45944;SDS011;31655;48.972;10.686;2024-02-28T08:25:12;84.15;;;31.73;;
45944;SDS011;31655;48.972;10.686;2024-02-28T08:27:39;78.80;;;32.65;;
45944;SDS011;31655;48.972;10.686;2024-02-28T08:30:05;76.32;;;29.98;;
45944;SDS011;31655;48.972;10.686;2024-02-28T08:32:31;83.22;;;31.52;;
45944;SDS011;31655;48.972;10.686;2024-02-28T08:34:57;87.03;;;31.42;;
45944;SDS011;31655;48.972;10.686;2024-02-28T08:37:23;83.03;;;30.92;;
45944;SDS011;31655;48.972;10.686;2024-02-28T08:39:49;83.25;;;31.00;;
45944;SDS011;31655;48.972;10.686;2024-02-28T08:42:15;83.38;;;31.08;;
45944;SDS011;31655;48.972;10.686;2024-02-28T08:44:41;86.25;;;31.73;;
45944;SDS011;31655;48.972;10.686;2024-02-28T08:47:06;76.18;;;30.02;;
45944;SDS011;31655;48.972;10.686;2024-02-28T08:49:34;83.53;;;32.50;;
45944;SDS011;31655;48.972;10.686;2024-02-28T08:52:00;86.05;;;32.05;;
45944;SDS011;31655;48.972;10.686;2024-02-28T08:54:26;78.15;;;31.70;;
45944;SDS011;31655;48.972;10.686;2024-02-28T08:56:51;80.78;;;31.60;;
45944;SDS011;31655;48.972;10.686;2024-02-28T08:59:17;75.60;;;29.77;;
45944;SDS011;31655;48.972;10.686;2024-02-28T09:01:42;79.75;;;30.08;;
45944;SDS011;31655;48.972;10.686;2024-02-28T09:04:08;81.38;;;31.23;;
45944;SDS011;31655;48.972;10.686;2024-02-28T09:06:33;79.00;;;29.33;;
45944;SDS011;31655;48.972;10.686;2024-02-28T09:08:59;77.55;;;29.67;;
45944;SDS011;31655;48.972;10.686;2024-02-28T09:11:24;76.50;;;29.70;;
45944;SDS011;31655;48.972;10.686;2024-02-28T09:13:50;78.80;;;28.35;;
45944;SDS011;31655;48.972;10.686;2024-02-28T09:16:16;67.00;;;27.33;;
45944;SDS011;31655;48.972;10.686;2024-02-28T09:18:42;74.10;;;27.70;;
45944;SDS011;31655;48.972;10.686;2024-02-28T09:21:08;75.35;;;28.83;;
45944;SDS011;31655;48.972;10.686;2024-02-28T09:23:35;77.10;;;29.55;;
45944;SDS011;31655;48.972;10.686;2024-02-28T09:26:04;68.75;;;29.17;;
45944;SDS011;31655;48.972;10.686;2024-02-28T09:28:30;74.45;;;28.95;;
45944;SDS011;31655;48.972;10.686;2024-02-28T09:30:57;77.97;;;27.85;;
45944;SDS011;31655;48.972;10.686;2024-02-28T09:33:22;67.45;;;26.77;;
45944;SDS011;31655;48.972;10.686;2024-02-28T09:35:48;71.43;;;26.30;;
45944;SDS011;31655;48.972;10.686;2024-02-28T09:38:14;71.03;;;25.48;;
45944;SDS011;31655;48.972;10.686;2024-02-28T09:40:39;72.35;;;29.15;;
45944;SDS011;31655;48.972;10.686;2024-02-28T09:43:05;73.47;;;28.92;;
45944;SDS011;31655;48.972;10.686;2024-02-28T09:45:36;71.95;;;27.73;;
45944;SDS011;31655;48.972;10.686;2024-02-28T09:48:05;79.93;;;29.23;;
45944;SDS011;31655;48.972;10.686;2024-02-28T09:50:31;74.30;;;28.65;;
45944;SDS011;31655;48.972;10.686;2024-02-28T09:52:57;77.53;;;28.30;;
45944;SDS011;31655;48.972;10.686;2024-02-28T09:55:24;81.13;;;30.42;;
45944;SDS011;31655;48.972;10.686;2024-02-28T09:57:50;75.30;;;27.80;;
45944;SDS011;31655;48.972;10.686;2024-02-28T10:00:17;74.97;;;29.20;;
45944;SDS011;31655;48.972;10.686;2024-02-28T10:02:45;73.35;;;27.65;;
45944;SDS011;31655;48.972;10.686;2024-02-28T10:05:13;65.28;;;27.17;;
45944;SDS011;31655;48.972;10.686;2024-02-28T10:07:39;68.43;;;28.75;;
45944;SDS011;31655;48.972;10.686;2024-02-28T10:10:05;84.93;;;33.67;;
45944;SDS011;31655;48.972;10.686;2024-02-28T10:12:33;81.07;;;29.02;;
45944;SDS011;31655;48.972;10.686;2024-02-28T10:14:59;72.07;;;26.92;;
45944;SDS011;31655;48.972;10.686;2024-02-28T10:17:25;80.30;;;27.95;;
45944;SDS011;31655;48.972;10.686;2024-02-28T10:19:51;77.32;;;26.10;;
45944;SDS011;31655;48.972;10.686;2024-02-28T10:22:17;72.45;;;28.75;;
45944;SDS011;31655;48.972;10.686;2024-02-28T10:24:43;73.00;;;29.10;;
45944;SDS011;31655;48.972;10.686;2024-02-28T10:27:08;77.80;;;28.35;;
45944;SDS011;31655;48.972;10.686;2024-02-28T10:29:34;87.00;;;31.40;;
45944;SDS011;31655;48.972;10.686;2024-02-28T10:32:00;71.50;;;28.60;;
45944;SDS011;31655;48.972;10.686;2024-02-28T10:34:27;76.25;;;29.80;;
45944;SDS011;31655;48.972;10.686;2024-02-28T10:36:54;82.63;;;30.65;;
45944;SDS011;31655;48.972;10.686;2024-02-28T10:39:21;72.93;;;29.30;;
45944;SDS011;31655;48.972;10.686;2024-02-28T10:41:48;80.18;;;28.88;;
45944;SDS011;31655;48.972;10.686;2024-02-28T10:44:16;69.97;;;28.48;;
45944;SDS011;31655;48.972;10.686;2024-02-28T10:46:42;63.15;;;27.65;;
45944;SDS011;31655;48.972;10.686;2024-02-28T10:49:09;70.38;;;27.13;;
45944;SDS011;31655;48.972;10.686;2024-02-28T10:51:35;67.55;;;26.00;;
45944;SDS011;31655;48.972;10.686;2024-02-28T10:54:08;70.90;;;28.00;;
45944;SDS011;31655;48.972;10.686;2024-02-28T10:56:36;69.25;;;27.55;;
45944;SDS011;31655;48.972;10.686;2024-02-28T10:59:06;77.10;;;28.38;;
45944;SDS011;31655;48.972;10.686;2024-02-28T11:01:34;67.57;;;25.98;;
45944;SDS011;31655;48.972;10.686;2024-02-28T11:04:06;69.93;;;27.48;;
45944;SDS011;31655;48.972;10.686;2024-02-28T11:06:32;64.05;;;26.50;;
45944;SDS011;31655;48.972;10.686;2024-02-28T11:08:59;67.68;;;26.25;;
45944;SDS011;31655;48.972;10.686;2024-02-28T11:11:29;75.30;;;28.80;;
45944;SDS011;31655;48.972;10.686;2024-02-28T11:13:56;74.13;;;29.33;;
45944;SDS011;31655;48.972;10.686;2024-02-28T11:16:34;58.83;;;25.63;;
45944;SDS011;31655;48.972;10.686;2024-02-28T11:19:01;64.53;;;26.05;;
45944;SDS011;31655;48.972;10.686;2024-02-28T11:21:28;61.95;;;24.48;;
45944;SDS011;31655;48.972;10.686;2024-02-28T11:23:57;74.03;;;26.38;;
45944;SDS011;31655;48.972;10.686;2024-02-28T11:26:24;65.15;;;23.60;;
45944;SDS011;31655;48.972;10.686;2024-02-28T11:28:51;67.40;;;26.52;;
45944;SDS011;31655;48.972;10.686;2024-02-28T11:31:16;71.05;;;26.88;;
45944;SDS011;31655;48.972;10.686;2024-02-28T11:33:43;62.65;;;25.23;;
45944;SDS011;31655;48.972;10.686;2024-02-28T11:36:11;67.53;;;25.13;;
45944;SDS011;31655;48.972;10.686;2024-02-28T11:38:38;65.15;;;26.20;;
45944;SDS011;31655;48.972;10.686;2024-02-28T11:41:04;61.45;;;24.17;;
45944;SDS011;31655;48.972;10.686;2024-02-28T11:43:30;60.33;;;23.77;;
45944;SDS011;31655;48.972;10.686;2024-02-28T11:45:57;64.28;;;23.23;;
45944;SDS011;31655;48.972;10.686;2024-02-28T11:48:23;49.70;;;21.17;;
45944;SDS011;31655;48.972;10.686;2024-02-28T11:50:50;55.90;;;23.17;;
45944;SDS011;31655;48.972;10.686;2024-02-28T11:53:16;50.55;;;23.17;;
45944;SDS011;31655;48.972;10.686;2024-02-28T11:55:42;47.38;;;20.25;;
45944;SDS011;31655;48.972;10.686;2024-02-28T11:58:08;53.55;;;22.83;;
45944;SDS011;31655;48.972;10.686;2024-02-28T12:00:49;48.15;;;20.85;;
45944;SDS011;31655;48.972;10.686;2024-02-28T12:03:25;57.83;;;24.73;;
45944;SDS011;31655;48.972;10.686;2024-02-28T12:05:51;56.00;;;26.05;;
45944;SDS011;31655;48.972;10.686;2024-02-28T12:08:19;55.80;;;24.08;;
45944;SDS011;31655;48.972;10.686;2024-02-28T12:10:47;60.17;;;25.50;;
45944;SDS011;31655;48.972;10.686;2024-02-28T12:13:37;49.83;;;22.80;;
45944;SDS011;31655;48.972;10.686;2024-02-28T12:16:03;41.28;;;20.45;;
45944;SDS011;31655;48.972;10.686;2024-02-28T12:18:29;46.17;;;20.30;;
45944;SDS011;31655;48.972;10.686;2024-02-28T12:20:54;47.10;;;20.98;;
45944;SDS011;31655;48.972;10.686;2024-02-28T12:23:20;41.60;;;18.65;;
45944;SDS011;31655;48.972;10.686;2024-02-28T12:25:46;42.55;;;20.73;;
45944;SDS011;31655;48.972;10.686;2024-02-28T12:28:11;43.28;;;19.17;;
45944;SDS011;31655;48.972;10.686;2024-02-28T12:30:41;44.80;;;19.70;;
45944;SDS011;31655;48.972;10.686;2024-02-28T12:33:08;35.72;;;17.90;;
45944;SDS011;31655;48.972;10.686;2024-02-28T12:35:34;42.55;;;20.35;;
45944;SDS011;31655;48.972;10.686;2024-02-28T12:38:00;41.50;;;19.25;;
45944;SDS011;31655;48.972;10.686;2024-02-28T12:40:25;45.28;;;19.67;;
45944;SDS011;31655;48.972;10.686;2024-02-28T12:42:51;40.25;;;18.83;;
45944;SDS011;31655;48.972;10.686;2024-02-28T12:45:16;41.60;;;18.63;;
45944;SDS011;31655;48.972;10.686;2024-02-28T12:47:42;43.05;;;19.40;;
45944;SDS011;31655;48.972;10.686;2024-02-28T12:50:08;33.70;;;17.95;;
45944;SDS011;31655;48.972;10.686;2024-02-28T12:52:34;41.22;;;19.75;;
45944;SDS011;31655;48.972;10.686;2024-02-28T12:55:00;40.90;;;19.98;;
45944;SDS011;31655;48.972;10.686;2024-02-28T12:57:26;36.92;;;18.02;;
45944;SDS011;31655;48.972;10.686;2024-02-28T12:59:51;41.20;;;20.42;;
45944;SDS011;31655;48.972;10.686;2024-02-28T13:02:17;36.10;;;17.63;;
45944;SDS011;31655;48.972;10.686;2024-02-28T13:04:44;32.30;;;16.55;;
45944;SDS011;31655;48.972;10.686;2024-02-28T13:07:10;45.38;;;21.42;;
45944;SDS011;31655;48.972;10.686;2024-02-28T13:09:36;42.90;;;20.67;;
45944;SDS011;31655;48.972;10.686;2024-02-28T13:12:02;42.45;;;20.00;;
45944;SDS011;31655;48.972;10.686;2024-02-28T13:14:29;38.97;;;19.83;;
45944;SDS011;31655;48.972;10.686;2024-02-28T13:16:55;31.30;;;16.83;;
45944;SDS011;31655;48.972;10.686;2024-02-28T13:19:20;33.30;;;17.55;;
45944;SDS011;31655;48.972;10.686;2024-02-28T13:21:46;32.63;;;17.50;;
45944;SDS011;31655;48.972;10.686;2024-02-28T13:24:11;34.88;;;16.35;;
45944;SDS011;31655;48.972;10.686;2024-02-28T13:26:40;36.53;;;16.42;;
45944;SDS011;31655;48.972;10.686;2024-02-28T13:29:05;37.92;;;19.60;;
45944;SDS011;31655;48.972;10.686;2024-02-28T13:31:32;34.97;;;18.10;;
45944;SDS011;31655;48.972;10.686;2024-02-28T13:33:58;38.67;;;18.35;;
45944;SDS011;31655;48.972;10.686;2024-02-28T13:36:24;32.15;;;16.55;;
45944;SDS011;31655;48.972;10.686;2024-02-28T13:38:49;40.53;;;16.75;;
45944;SDS011;31655;48.972;10.686;2024-02-28T13:41:15;37.10;;;18.00;;
45944;SDS011;31655;48.972;10.686;2024-02-28T13:43:41;33.72;;;17.83;;
45944;SDS011;31655;48.972;10.686;2024-02-28T13:46:06;34.65;;;17.58;;
45944;SDS011;31655;48.972;10.686;2024-02-28T13:48:32;38.17;;;18.13;;
45944;SDS011;31655;48.972;10.686;2024-02-28T13:50:59;35.75;;;17.60;;
45944;SDS011;31655;48.972;10.686;2024-02-28T13:53:25;28.13;;;15.50;;
45944;SDS011;31655;48.972;10.686;2024-02-28T13:55:51;32.95;;;15.90;;
45944;SDS011;31655;48.972;10.686;2024-02-28T13:58:17;35.45;;;16.85;;
45944;SDS011;31655;48.972;10.686;2024-02-28T14:00:43;33.83;;;17.55;;
45944;SDS011;31655;48.972;10.686;2024-02-28T14:03:10;30.20;;;15.52;;
45944;SDS011;31655;48.972;10.686;2024-02-28T14:05:36;33.40;;;17.55;;
45944;SDS011;31655;48.972;10.686;2024-02-28T14:08:01;30.83;;;16.00;;
45944;SDS011;31655;48.972;10.686;2024-02-28T14:10:33;31.50;;;16.85;;
45944;SDS011;31655;48.972;10.686;2024-02-28T14:12:59;29.52;;;15.73;;
45944;SDS011;31655;48.972;10.686;2024-02-28T14:15:25;35.03;;;18.35;;